sensor_id;sensor_type;location;lat;lon;timestamp;P1;durP1;ratioP1;P2;durP2;ratioP2
67819;SDS011;54618;52.018;5.576;2022-10-22T00:01:40;2.10;;;1.30;;
67819;SDS011;54618;52.018;5.576;2022-10-22T00:04:06;2.45;;;1.40;;
67819;SDS011;54618;52.018;5.576;2022-10-22T00:06:32;2.95;;;1.15;;
67819;SDS011;54618;52.018;5.576;2022-10-22T00:08:58;2.55;;;1.30;;
67819;SDS011;54618;52.018;5.576;2022-10-22T00:11:24;2.28;;;1.30;;
67819;SDS011;54618;52.018;5.576;2022-10-22T00:13:49;2.45;;;1.27;;
67819;SDS011;54618;52.018;5.576;2022-10-22T00:16:15;2.33;;;1.40;;
67819;SDS011;54618;52.018;5.576;2022-10-22T00:18:41;3.50;;;1.70;;
67819;SDS011;54618;52.018;5.576;2022-10-22T00:21:07;3.13;;;1.60;;
67819;SDS011;54618;52.018;5.576;2022-10-22T00:23:33;1.85;;;1.05;;
67819;SDS011;54618;52.018;5.576;2022-10-22T00:25:59;2.40;;;1.30;;
67819;SDS011;54618;52.018;5.576;2022-10-22T00:28:24;2.78;;;1.20;;
67819;SDS011;54618;52.018;5.576;2022-10-22T00:30:56;2.00;;;1.25;;
67819;SDS011;54618;52.018;5.576;2022-10-22T00:33:24;1.73;;;1.15;;
67819;SDS011;54618;52.018;5.576;2022-10-22T00:35:50;2.28;;;1.30;;
67819;SDS011;54618;52.018;5.576;2022-10-22T00:38:16;2.42;;;1.30;;
67819;SDS011;54618;52.018;5.576;2022-10-22T00:40:42;3.25;;;1.45;;
67819;SDS011;54618;52.018;5.576;2022-10-22T00:43:11;3.03;;;1.38;;
67819;SDS011;54618;52.018;5.576;2022-10-22T00:48:08;2.30;;;1.27;;
67819;SDS011;54618;52.018;5.576;2022-10-22T00:50:49;2.30;;;1.35;;
67819;SDS011;54618;52.018;5.576;2022-10-22T00:53:21;3.03;;;1.30;;
67819;SDS011;54618;52.018;5.576;2022-10-22T00:56:05;3.08;;;1.50;;
67819;SDS011;54618;52.018;5.576;2022-10-22T00:58:33;3.05;;;1.80;;
67819;SDS011;54618;52.018;5.576;2022-10-22T01:01:01;2.17;;;1.27;;
67819;SDS011;54618;52.018;5.576;2022-10-22T01:03:28;2.42;;;1.25;;
67819;SDS011;54618;52.018;5.576;2022-10-22T01:05:57;2.30;;;1.50;;
67819;SDS011;54618;52.018;5.576;2022-10-22T01:08:27;2.22;;;1.30;;
67819;SDS011;54618;52.018;5.576;2022-10-22T01:22:36;2.33;;;1.30;;
67819;SDS011;54618;52.018;5.576;2022-10-22T01:30:49;4.80;;;1.30;;
67819;SDS011;54618;52.018;5.576;2022-10-22T01:33:20;2.50;;;1.40;;
67819;SDS011;54618;52.018;5.576;2022-10-22T01:35:47;2.67;;;1.20;;
67819;SDS011;54618;52.018;5.576;2022-10-22T01:38:16;3.35;;;1.42;;
67819;SDS011;54618;52.018;5.576;2022-10-22T01:40:44;2.53;;;1.20;;
67819;SDS011;54618;52.018;5.576;2022-10-22T01:43:11;2.20;;;1.30;;
67819;SDS011;54618;52.018;5.576;2022-10-22T01:45:38;2.95;;;1.30;;
67819;SDS011;54618;52.018;5.576;2022-10-22T01:57:35;1.65;;;1.23;;
67819;SDS011;54618;52.018;5.576;2022-10-22T02:00:09;2.72;;;1.30;;
67819;SDS011;54618;52.018;5.576;2022-10-22T02:02:48;2.08;;;1.20;;
67819;SDS011;54618;52.018;5.576;2022-10-22T02:05:25;2.90;;;1.27;;
67819;SDS011;54618;52.018;5.576;2022-10-22T02:08:10;1.83;;;1.20;;
67819;SDS011;54618;52.018;5.576;2022-10-22T02:10:39;3.45;;;1.50;;
67819;SDS011;54618;52.018;5.576;2022-10-22T02:13:07;2.28;;;1.23;;
67819;SDS011;54618;52.018;5.576;2022-10-22T02:15:37;2.08;;;1.30;;
67819;SDS011;54618;52.018;5.576;2022-10-22T02:18:04;3.65;;;1.30;;
67819;SDS011;54618;52.018;5.576;2022-10-22T02:20:32;3.28;;;1.30;;
67819;SDS011;54618;52.018;5.576;2022-10-22T02:23:00;3.22;;;1.60;;
67819;SDS011;54618;52.018;5.576;2022-10-22T02:25:27;4.88;;;1.25;;
67819;SDS011;54618;52.018;5.576;2022-10-22T02:30:41;2.25;;;1.35;;
67819;SDS011;54618;52.018;5.576;2022-10-22T02:33:11;1.75;;;1.10;;
67819;SDS011;54618;52.018;5.576;2022-10-22T02:35:42;3.03;;;1.30;;
67819;SDS011;54618;52.018;5.576;2022-10-22T02:38:08;2.00;;;1.23;;
67819;SDS011;54618;52.018;5.576;2022-10-22T02:40:35;2.97;;;1.30;;
67819;SDS011;54618;52.018;5.576;2022-10-22T02:43:02;3.22;;;1.38;;
67819;SDS011;54618;52.018;5.576;2022-10-22T02:45:29;2.75;;;1.33;;
67819;SDS011;54618;52.018;5.576;2022-10-22T02:47:55;2.50;;;1.38;;
67819;SDS011;54618;52.018;5.576;2022-10-22T02:50:20;3.90;;;1.52;;
67819;SDS011;54618;52.018;5.576;2022-10-22T02:52:46;3.83;;;1.40;;
67819;SDS011;54618;52.018;5.576;2022-10-22T02:55:11;2.78;;;1.30;;
67819;SDS011;54618;52.018;5.576;2022-10-22T02:57:37;3.05;;;1.40;;
67819;SDS011;54618;52.018;5.576;2022-10-22T03:00:03;2.63;;;1.30;;
67819;SDS011;54618;52.018;5.576;2022-10-22T03:02:30;2.55;;;1.48;;
67819;SDS011;54618;52.018;5.576;2022-10-22T03:04:56;3.78;;;1.40;;
67819;SDS011;54618;52.018;5.576;2022-10-22T03:07:21;3.83;;;1.50;;
67819;SDS011;54618;52.018;5.576;2022-10-22T03:09:47;1.83;;;1.40;;
67819;SDS011;54618;52.018;5.576;2022-10-22T03:12:12;5.90;;;1.73;;
67819;SDS011;54618;52.018;5.576;2022-10-22T03:14:38;3.00;;;1.50;;
67819;SDS011;54618;52.018;5.576;2022-10-22T03:17:03;2.90;;;1.35;;
67819;SDS011;54618;52.018;5.576;2022-10-22T03:19:29;3.17;;;1.60;;
67819;SDS011;54618;52.018;5.576;2022-10-22T03:24:26;2.25;;;1.20;;
67819;SDS011;54618;52.018;5.576;2022-10-22T03:26:55;2.92;;;1.30;;
67819;SDS011;54618;52.018;5.576;2022-10-22T03:29:22;4.55;;;1.48;;
67819;SDS011;54618;52.018;5.576;2022-10-22T03:31:50;2.72;;;1.23;;
67819;SDS011;54618;52.018;5.576;2022-10-22T03:34:17;2.15;;;1.40;;
67819;SDS011;54618;52.018;5.576;2022-10-22T03:36:42;2.05;;;1.20;;
67819;SDS011;54618;52.018;5.576;2022-10-22T03:39:08;3.10;;;1.45;;
67819;SDS011;54618;52.018;5.576;2022-10-22T03:41:37;3.85;;;1.50;;
67819;SDS011;54618;52.018;5.576;2022-10-22T03:44:02;2.88;;;1.30;;
67819;SDS011;54618;52.018;5.576;2022-10-22T03:46:29;3.88;;;1.85;;
67819;SDS011;54618;52.018;5.576;2022-10-22T03:48:55;2.35;;;1.40;;
67819;SDS011;54618;52.018;5.576;2022-10-22T03:51:20;2.25;;;1.20;;
67819;SDS011;54618;52.018;5.576;2022-10-22T03:53:46;2.75;;;1.42;;
67819;SDS011;54618;52.018;5.576;2022-10-22T03:56:11;3.00;;;1.25;;
67819;SDS011;54618;52.018;5.576;2022-10-22T03:58:38;3.05;;;1.60;;
67819;SDS011;54618;52.018;5.576;2022-10-22T04:01:08;2.92;;;1.52;;
67819;SDS011;54618;52.018;5.576;2022-10-22T04:03:35;2.42;;;1.30;;
67819;SDS011;54618;52.018;5.576;2022-10-22T04:06:01;1.90;;;1.10;;
67819;SDS011;54618;52.018;5.576;2022-10-22T04:08:35;1.77;;;1.20;;
67819;SDS011;54618;52.018;5.576;2022-10-22T04:11:03;3.50;;;1.38;;
67819;SDS011;54618;52.018;5.576;2022-10-22T04:13:28;1.95;;;1.10;;
67819;SDS011;54618;52.018;5.576;2022-10-22T04:15:54;3.65;;;1.65;;
67819;SDS011;54618;52.018;5.576;2022-10-22T04:18:20;2.60;;;1.55;;
67819;SDS011;54618;52.018;5.576;2022-10-22T04:20:46;2.30;;;1.50;;
67819;SDS011;54618;52.018;5.576;2022-10-22T04:23:12;3.78;;;1.50;;
67819;SDS011;54618;52.018;5.576;2022-10-22T04:25:37;4.25;;;1.33;;
67819;SDS011;54618;52.018;5.576;2022-10-22T04:28:06;1.95;;;1.17;;
67819;SDS011;54618;52.018;5.576;2022-10-22T04:30:33;3.60;;;1.25;;
67819;SDS011;54618;52.018;5.576;2022-10-22T04:33:00;3.60;;;1.38;;
67819;SDS011;54618;52.018;5.576;2022-10-22T04:35:25;4.25;;;1.40;;
67819;SDS011;54618;52.018;5.576;2022-10-22T04:37:50;2.10;;;1.17;;
67819;SDS011;54618;52.018;5.576;2022-10-22T04:40:16;2.60;;;1.30;;
67819;SDS011;54618;52.018;5.576;2022-10-22T04:42:42;2.72;;;1.33;;
67819;SDS011;54618;52.018;5.576;2022-10-22T04:45:07;2.80;;;1.42;;
67819;SDS011;54618;52.018;5.576;2022-10-22T04:47:33;2.85;;;1.40;;
67819;SDS011;54618;52.018;5.576;2022-10-22T04:49:59;3.95;;;1.30;;
67819;SDS011;54618;52.018;5.576;2022-10-22T04:52:24;2.95;;;1.33;;
67819;SDS011;54618;52.018;5.576;2022-10-22T04:54:50;3.97;;;1.25;;
67819;SDS011;54618;52.018;5.576;2022-10-22T04:57:15;2.70;;;1.40;;
67819;SDS011;54618;52.018;5.576;2022-10-22T04:59:41;2.25;;;1.13;;
67819;SDS011;54618;52.018;5.576;2022-10-22T05:02:07;3.15;;;1.40;;
67819;SDS011;54618;52.018;5.576;2022-10-22T05:04:32;2.40;;;1.13;;
67819;SDS011;54618;52.018;5.576;2022-10-22T05:06:58;3.95;;;1.33;;
67819;SDS011;54618;52.018;5.576;2022-10-22T05:09:23;3.40;;;1.20;;
67819;SDS011;54618;52.018;5.576;2022-10-22T05:11:50;3.05;;;1.52;;
67819;SDS011;54618;52.018;5.576;2022-10-22T05:14:17;4.10;;;1.40;;
67819;SDS011;54618;52.018;5.576;2022-10-22T05:16:44;4.00;;;1.58;;
67819;SDS011;54618;52.018;5.576;2022-10-22T05:19:19;2.70;;;1.33;;
67819;SDS011;54618;52.018;5.576;2022-10-22T05:21:47;4.00;;;1.20;;
67819;SDS011;54618;52.018;5.576;2022-10-22T05:24:14;3.25;;;1.20;;
67819;SDS011;54618;52.018;5.576;2022-10-22T05:26:39;3.50;;;1.40;;
67819;SDS011;54618;52.018;5.576;2022-10-22T05:29:05;1.98;;;1.30;;
67819;SDS011;54618;52.018;5.576;2022-10-22T05:31:31;3.45;;;1.30;;
67819;SDS011;54618;52.018;5.576;2022-10-22T05:33:56;3.85;;;1.52;;
67819;SDS011;54618;52.018;5.576;2022-10-22T05:36:22;4.15;;;1.40;;
67819;SDS011;54618;52.018;5.576;2022-10-22T05:38:48;2.20;;;1.17;;
67819;SDS011;54618;52.018;5.576;2022-10-22T05:41:15;5.15;;;1.50;;
67819;SDS011;54618;52.018;5.576;2022-10-22T05:43:42;4.10;;;1.35;;
67819;SDS011;54618;52.018;5.576;2022-10-22T05:46:09;2.20;;;1.05;;
67819;SDS011;54618;52.018;5.576;2022-10-22T05:48:39;3.45;;;1.25;;
67819;SDS011;54618;52.018;5.576;2022-10-22T05:51:06;2.95;;;1.40;;
67819;SDS011;54618;52.018;5.576;2022-10-22T05:53:34;2.53;;;1.40;;
67819;SDS011;54618;52.018;5.576;2022-10-22T05:56:01;2.63;;;1.30;;
67819;SDS011;54618;52.018;5.576;2022-10-22T05:58:29;3.55;;;1.33;;
67819;SDS011;54618;52.018;5.576;2022-10-22T06:00:59;2.88;;;1.45;;
67819;SDS011;54618;52.018;5.576;2022-10-22T06:03:29;3.72;;;1.40;;
67819;SDS011;54618;52.018;5.576;2022-10-22T06:05:56;3.40;;;1.35;;
67819;SDS011;54618;52.018;5.576;2022-10-22T06:08:24;3.10;;;1.20;;
67819;SDS011;54618;52.018;5.576;2022-10-22T06:10:49;2.92;;;1.58;;
67819;SDS011;54618;52.018;5.576;2022-10-22T06:13:15;5.25;;;1.52;;
67819;SDS011;54618;52.018;5.576;2022-10-22T06:15:40;3.92;;;1.23;;
67819;SDS011;54618;52.018;5.576;2022-10-22T06:18:06;3.88;;;1.27;;
67819;SDS011;54618;52.018;5.576;2022-10-22T06:20:32;2.70;;;1.30;;
67819;SDS011;54618;52.018;5.576;2022-10-22T06:22:58;3.45;;;1.55;;
67819;SDS011;54618;52.018;5.576;2022-10-22T06:25:24;2.67;;;1.20;;
67819;SDS011;54618;52.018;5.576;2022-10-22T06:27:49;3.70;;;1.30;;
67819;SDS011;54618;52.018;5.576;2022-10-22T06:30:18;2.33;;;1.30;;
67819;SDS011;54618;52.018;5.576;2022-10-22T06:32:43;2.38;;;1.13;;
67819;SDS011;54618;52.018;5.576;2022-10-22T06:35:09;3.90;;;1.80;;
67819;SDS011;54618;52.018;5.576;2022-10-22T06:37:34;2.60;;;1.20;;
67819;SDS011;54618;52.018;5.576;2022-10-22T06:40:00;3.03;;;1.50;;
67819;SDS011;54618;52.018;5.576;2022-10-22T06:42:26;2.72;;;1.30;;
67819;SDS011;54618;52.018;5.576;2022-10-22T06:44:52;2.78;;;1.20;;
67819;SDS011;54618;52.018;5.576;2022-10-22T06:47:18;3.25;;;1.38;;
67819;SDS011;54618;52.018;5.576;2022-10-22T06:49:43;2.83;;;1.30;;
67819;SDS011;54618;52.018;5.576;2022-10-22T06:52:09;4.15;;;1.40;;
67819;SDS011;54618;52.018;5.576;2022-10-22T06:54:34;2.78;;;1.30;;
67819;SDS011;54618;52.018;5.576;2022-10-22T06:57:00;3.05;;;1.15;;
67819;SDS011;54618;52.018;5.576;2022-10-22T06:59:25;2.53;;;1.15;;
67819;SDS011;54618;52.018;5.576;2022-10-22T07:01:51;2.83;;;1.27;;
67819;SDS011;54618;52.018;5.576;2022-10-22T07:04:16;4.30;;;1.30;;
67819;SDS011;54618;52.018;5.576;2022-10-22T07:06:42;3.40;;;1.30;;
67819;SDS011;54618;52.018;5.576;2022-10-22T07:09:07;2.30;;;1.27;;
67819;SDS011;54618;52.018;5.576;2022-10-22T07:11:36;2.92;;;1.23;;
67819;SDS011;54618;52.018;5.576;2022-10-22T07:14:07;3.50;;;1.33;;
67819;SDS011;54618;52.018;5.576;2022-10-22T07:16:33;4.15;;;1.40;;
67819;SDS011;54618;52.018;5.576;2022-10-22T07:18:59;2.85;;;1.38;;
67819;SDS011;54618;52.018;5.576;2022-10-22T07:21:25;3.35;;;1.35;;
67819;SDS011;54618;52.018;5.576;2022-10-22T07:23:51;3.63;;;1.23;;
67819;SDS011;54618;52.018;5.576;2022-10-22T07:26:17;3.20;;;1.08;;
67819;SDS011;54618;52.018;5.576;2022-10-22T07:28:44;2.58;;;1.20;;
67819;SDS011;54618;52.018;5.576;2022-10-22T07:31:11;4.40;;;1.55;;
67819;SDS011;54618;52.018;5.576;2022-10-22T07:33:38;3.10;;;1.30;;
67819;SDS011;54618;52.018;5.576;2022-10-22T07:36:06;2.92;;;1.10;;
67819;SDS011;54618;52.018;5.576;2022-10-22T07:38:33;3.83;;;1.60;;
67819;SDS011;54618;52.018;5.576;2022-10-22T07:40:59;2.80;;;1.20;;
67819;SDS011;54618;52.018;5.576;2022-10-22T07:43:25;2.75;;;1.25;;
67819;SDS011;54618;52.018;5.576;2022-10-22T07:45:51;3.60;;;1.30;;
67819;SDS011;54618;52.018;5.576;2022-10-22T07:48:16;2.67;;;1.20;;
67819;SDS011;54618;52.018;5.576;2022-10-22T07:50:42;3.40;;;1.20;;
67819;SDS011;54618;52.018;5.576;2022-10-22T07:53:08;3.72;;;1.20;;
67819;SDS011;54618;52.018;5.576;2022-10-22T07:55:34;4.22;;;1.60;;
67819;SDS011;54618;52.018;5.576;2022-10-22T07:57:59;2.75;;;1.00;;
67819;SDS011;54618;52.018;5.576;2022-10-22T08:00:25;2.95;;;1.10;;
67819;SDS011;54618;52.018;5.576;2022-10-22T08:02:51;3.88;;;1.20;;
67819;SDS011;54618;52.018;5.576;2022-10-22T08:05:16;4.88;;;1.30;;
67819;SDS011;54618;52.018;5.576;2022-10-22T08:07:42;3.03;;;1.17;;
67819;SDS011;54618;52.018;5.576;2022-10-22T08:10:08;3.03;;;1.20;;
67819;SDS011;54618;52.018;5.576;2022-10-22T08:12:35;3.33;;;1.30;;
67819;SDS011;54618;52.018;5.576;2022-10-22T08:15:01;2.47;;;1.20;;
67819;SDS011;54618;52.018;5.576;2022-10-22T08:17:27;3.47;;;1.20;;
67819;SDS011;54618;52.018;5.576;2022-10-22T08:19:52;4.70;;;1.40;;
67819;SDS011;54618;52.018;5.576;2022-10-22T08:22:18;5.40;;;1.33;;
67819;SDS011;54618;52.018;5.576;2022-10-22T08:24:44;4.38;;;1.25;;
67819;SDS011;54618;52.018;5.576;2022-10-22T08:27:09;2.78;;;1.15;;
67819;SDS011;54618;52.018;5.576;2022-10-22T08:29:35;2.53;;;1.20;;
67819;SDS011;54618;52.018;5.576;2022-10-22T08:32:00;4.57;;;1.08;;
67819;SDS011;54618;52.018;5.576;2022-10-22T08:34:27;3.15;;;1.23;;
67819;SDS011;54618;52.018;5.576;2022-10-22T08:36:52;4.30;;;1.27;;
67819;SDS011;54618;52.018;5.576;2022-10-22T08:39:18;3.08;;;1.13;;
67819;SDS011;54618;52.018;5.576;2022-10-22T08:41:48;3.17;;;1.35;;
67819;SDS011;54618;52.018;5.576;2022-10-22T08:44:51;3.45;;;1.08;;
67819;SDS011;54618;52.018;5.576;2022-10-22T08:47:43;2.22;;;1.20;;
67819;SDS011;54618;52.018;5.576;2022-10-22T08:50:11;3.08;;;1.20;;
67819;SDS011;54618;52.018;5.576;2022-10-22T08:52:41;2.40;;;1.13;;
67819;SDS011;54618;52.018;5.576;2022-10-22T08:55:13;3.13;;;1.08;;
67819;SDS011;54618;52.018;5.576;2022-10-22T08:57:55;4.10;;;1.27;;
67819;SDS011;54618;52.018;5.576;2022-10-22T09:00:59;4.43;;;1.20;;
67819;SDS011;54618;52.018;5.576;2022-10-22T09:03:33;1.70;;;1.00;;
67819;SDS011;54618;52.018;5.576;2022-10-22T09:08:41;3.38;;;1.50;;
67819;SDS011;54618;52.018;5.576;2022-10-22T09:11:13;2.97;;;1.00;;
67819;SDS011;54618;52.018;5.576;2022-10-22T09:13:47;2.88;;;1.13;;
67819;SDS011;54618;52.018;5.576;2022-10-22T09:21:37;3.05;;;1.10;;
67819;SDS011;54618;52.018;5.576;2022-10-22T09:24:39;2.22;;;0.90;;
67819;SDS011;54618;52.018;5.576;2022-10-22T09:27:16;2.37;;;1.10;;
67819;SDS011;54618;52.018;5.576;2022-10-22T09:29:42;2.60;;;1.10;;
67819;SDS011;54618;52.018;5.576;2022-10-22T09:32:09;3.17;;;1.02;;
67819;SDS011;54618;52.018;5.576;2022-10-22T09:34:34;2.53;;;1.08;;
67819;SDS011;54618;52.018;5.576;2022-10-22T09:37:09;2.80;;;1.13;;
67819;SDS011;54618;52.018;5.576;2022-10-22T09:42:02;3.00;;;1.10;;
67819;SDS011;54618;52.018;5.576;2022-10-22T09:44:31;3.58;;;1.20;;
67819;SDS011;54618;52.018;5.576;2022-10-22T09:46:57;1.48;;;0.82;;
67819;SDS011;54618;52.018;5.576;2022-10-22T09:49:23;3.22;;;1.02;;
67819;SDS011;54618;52.018;5.576;2022-10-22T09:51:55;2.78;;;1.10;;
67819;SDS011;54618;52.018;5.576;2022-10-22T09:54:23;2.30;;;1.00;;
67819;SDS011;54618;52.018;5.576;2022-10-22T09:59:32;3.08;;;1.45;;
67819;SDS011;54618;52.018;5.576;2022-10-22T10:02:05;2.97;;;1.10;;
67819;SDS011;54618;52.018;5.576;2022-10-22T10:04:48;2.83;;;1.10;;
67819;SDS011;54618;52.018;5.576;2022-10-22T10:07:16;2.47;;;0.93;;
67819;SDS011;54618;52.018;5.576;2022-10-22T10:09:54;3.58;;;1.10;;
67819;SDS011;54618;52.018;5.576;2022-10-22T10:12:33;3.00;;;1.20;;
67819;SDS011;54618;52.018;5.576;2022-10-22T10:15:15;3.28;;;1.02;;
67819;SDS011;54618;52.018;5.576;2022-10-22T10:17:59;2.20;;;0.90;;
67819;SDS011;54618;52.018;5.576;2022-10-22T10:39:17;1.83;;;0.90;;
67819;SDS011;54618;52.018;5.576;2022-10-22T10:41:54;2.03;;;1.00;;
67819;SDS011;54618;52.018;5.576;2022-10-22T10:49:34;2.78;;;1.10;;
67819;SDS011;54618;52.018;5.576;2022-10-22T10:52:08;4.32;;;1.30;;
67819;SDS011;54618;52.018;5.576;2022-10-22T11:00:55;2.25;;;1.02;;
67819;SDS011;54618;52.018;5.576;2022-10-22T11:06:21;2.17;;;1.02;;
67819;SDS011;54618;52.018;5.576;2022-10-22T11:11:43;2.50;;;1.10;;
67819;SDS011;54618;52.018;5.576;2022-10-22T11:14:20;3.35;;;1.05;;
67819;SDS011;54618;52.018;5.576;2022-10-22T11:17:04;3.88;;;1.20;;
67819;SDS011;54618;52.018;5.576;2022-10-22T11:22:24;3.10;;;1.20;;
67819;SDS011;54618;52.018;5.576;2022-10-22T11:28:22;1.75;;;0.80;;
67819;SDS011;54618;52.018;5.576;2022-10-22T11:30:50;3.80;;;1.00;;
67819;SDS011;54618;52.018;5.576;2022-10-22T11:33:23;3.80;;;1.02;;
67819;SDS011;54618;52.018;5.576;2022-10-22T11:35:50;2.72;;;1.10;;
67819;SDS011;54618;52.018;5.576;2022-10-22T11:38:19;2.88;;;1.23;;
67819;SDS011;54618;52.018;5.576;2022-10-22T11:40:57;8.90;;;1.45;;
67819;SDS011;54618;52.018;5.576;2022-10-22T11:46:33;5.18;;;1.30;;
67819;SDS011;54618;52.018;5.576;2022-10-22T11:49:00;2.83;;;1.17;;
67819;SDS011;54618;52.018;5.576;2022-10-22T11:53:57;3.83;;;1.00;;
67819;SDS011;54618;52.018;5.576;2022-10-22T11:56:28;3.67;;;1.20;;
67819;SDS011;54618;52.018;5.576;2022-10-22T11:59:01;3.72;;;1.13;;
67819;SDS011;54618;52.018;5.576;2022-10-22T12:01:28;5.15;;;1.27;;
67819;SDS011;54618;52.018;5.576;2022-10-22T12:04:15;4.28;;;1.20;;
67819;SDS011;54618;52.018;5.576;2022-10-22T12:06:54;4.43;;;1.20;;
67819;SDS011;54618;52.018;5.576;2022-10-22T12:09:24;6.63;;;1.42;;
67819;SDS011;54618;52.018;5.576;2022-10-22T12:11:54;5.45;;;1.35;;
67819;SDS011;54618;52.018;5.576;2022-10-22T12:14:31;4.43;;;1.20;;
67819;SDS011;54618;52.018;5.576;2022-10-22T12:17:02;4.07;;;1.30;;
67819;SDS011;54618;52.018;5.576;2022-10-22T12:24:35;4.57;;;1.10;;
67819;SDS011;54618;52.018;5.576;2022-10-22T12:27:13;7.15;;;1.65;;
67819;SDS011;54618;52.018;5.576;2022-10-22T12:29:54;9.75;;;1.75;;
67819;SDS011;54618;52.018;5.576;2022-10-22T12:32:21;6.60;;;1.48;;
67819;SDS011;54618;52.018;5.576;2022-10-22T12:34:48;10.02;;;1.77;;
67819;SDS011;54618;52.018;5.576;2022-10-22T12:37:16;6.78;;;1.55;;
67819;SDS011;54618;52.018;5.576;2022-10-22T12:39:43;8.93;;;1.60;;
67819;SDS011;54618;52.018;5.576;2022-10-22T12:42:11;8.15;;;2.10;;
67819;SDS011;54618;52.018;5.576;2022-10-22T12:44:39;11.43;;;1.70;;
67819;SDS011;54618;52.018;5.576;2022-10-22T12:47:05;8.70;;;1.63;;
67819;SDS011;54618;52.018;5.576;2022-10-22T12:49:34;12.55;;;2.05;;
67819;SDS011;54618;52.018;5.576;2022-10-22T12:52:03;10.90;;;1.90;;
67819;SDS011;54618;52.018;5.576;2022-10-22T12:54:31;5.90;;;1.80;;
67819;SDS011;54618;52.018;5.576;2022-10-22T12:56:58;8.93;;;1.42;;
67819;SDS011;54618;52.018;5.576;2022-10-22T12:59:25;6.72;;;1.75;;
67819;SDS011;54618;52.018;5.576;2022-10-22T13:01:54;6.85;;;1.50;;
67819;SDS011;54618;52.018;5.576;2022-10-22T13:04:21;6.72;;;1.80;;
67819;SDS011;54618;52.018;5.576;2022-10-22T13:09:37;8.43;;;1.98;;
67819;SDS011;54618;52.018;5.576;2022-10-22T13:12:04;8.82;;;1.70;;
67819;SDS011;54618;52.018;5.576;2022-10-22T13:14:31;8.48;;;1.75;;
67819;SDS011;54618;52.018;5.576;2022-10-22T13:19:45;7.93;;;1.35;;
67819;SDS011;54618;52.018;5.576;2022-10-22T13:22:30;5.75;;;1.60;;
67819;SDS011;54618;52.018;5.576;2022-10-22T13:27:28;5.95;;;1.50;;
67819;SDS011;54618;52.018;5.576;2022-10-22T13:29:55;8.30;;;1.85;;
67819;SDS011;54618;52.018;5.576;2022-10-22T13:32:29;12.25;;;2.13;;
67819;SDS011;54618;52.018;5.576;2022-10-22T13:34:58;5.53;;;1.80;;
67819;SDS011;54618;52.018;5.576;2022-10-22T13:37:26;6.90;;;1.55;;
67819;SDS011;54618;52.018;5.576;2022-10-22T13:39:53;7.88;;;1.77;;
67819;SDS011;54618;52.018;5.576;2022-10-22T13:42:19;8.82;;;1.80;;
67819;SDS011;54618;52.018;5.576;2022-10-22T13:44:45;8.90;;;1.95;;
67819;SDS011;54618;52.018;5.576;2022-10-22T13:47:31;6.47;;;1.50;;
67819;SDS011;54618;52.018;5.576;2022-10-22T13:50:00;7.13;;;1.80;;
67819;SDS011;54618;52.018;5.576;2022-10-22T13:52:37;10.10;;;2.30;;
67819;SDS011;54618;52.018;5.576;2022-10-22T13:55:19;7.10;;;1.60;;
67819;SDS011;54618;52.018;5.576;2022-10-22T13:57:49;8.23;;;1.90;;
67819;SDS011;54618;52.018;5.576;2022-10-22T14:00:17;5.53;;;1.58;;
67819;SDS011;54618;52.018;5.576;2022-10-22T14:02:47;7.93;;;1.65;;
67819;SDS011;54618;52.018;5.576;2022-10-22T14:05:16;6.50;;;1.70;;
67819;SDS011;54618;52.018;5.576;2022-10-22T14:07:43;10.75;;;2.10;;
67819;SDS011;54618;52.018;5.576;2022-10-22T14:10:13;6.63;;;1.63;;
67819;SDS011;54618;52.018;5.576;2022-10-22T14:12:44;7.00;;;1.95;;
67819;SDS011;54618;52.018;5.576;2022-10-22T14:15:10;6.65;;;1.85;;
67819;SDS011;54618;52.018;5.576;2022-10-22T14:17:38;7.63;;;1.75;;
67819;SDS011;54618;52.018;5.576;2022-10-22T14:20:08;6.85;;;1.77;;
67819;SDS011;54618;52.018;5.576;2022-10-22T14:22:43;6.80;;;1.77;;
67819;SDS011;54618;52.018;5.576;2022-10-22T14:25:12;6.78;;;1.75;;
67819;SDS011;54618;52.018;5.576;2022-10-22T14:27:42;6.20;;;1.75;;
67819;SDS011;54618;52.018;5.576;2022-10-22T14:30:11;6.43;;;1.70;;
67819;SDS011;54618;52.018;5.576;2022-10-22T14:32:39;9.02;;;2.05;;
67819;SDS011;54618;52.018;5.576;2022-10-22T14:35:05;7.07;;;1.65;;
67819;SDS011;54618;52.018;5.576;2022-10-22T14:37:30;7.75;;;1.98;;
67819;SDS011;54618;52.018;5.576;2022-10-22T14:39:56;8.35;;;1.63;;
67819;SDS011;54618;52.018;5.576;2022-10-22T14:42:25;8.40;;;2.05;;
67819;SDS011;54618;52.018;5.576;2022-10-22T14:44:52;9.20;;;2.20;;
67819;SDS011;54618;52.018;5.576;2022-10-22T14:47:17;6.80;;;1.80;;
67819;SDS011;54618;52.018;5.576;2022-10-22T14:49:43;7.63;;;1.70;;
67819;SDS011;54618;52.018;5.576;2022-10-22T14:52:09;5.20;;;1.63;;
67819;SDS011;54618;52.018;5.576;2022-10-22T14:54:34;5.97;;;1.60;;
67819;SDS011;54618;52.018;5.576;2022-10-22T14:57:03;7.30;;;1.50;;
67819;SDS011;54618;52.018;5.576;2022-10-22T14:59:29;7.47;;;1.73;;
67819;SDS011;54618;52.018;5.576;2022-10-22T15:01:55;5.93;;;1.70;;
67819;SDS011;54618;52.018;5.576;2022-10-22T15:04:21;6.60;;;1.58;;
67819;SDS011;54618;52.018;5.576;2022-10-22T15:06:47;6.80;;;1.50;;
67819;SDS011;54618;52.018;5.576;2022-10-22T15:09:12;6.22;;;1.50;;
67819;SDS011;54618;52.018;5.576;2022-10-22T15:11:38;4.82;;;1.60;;
67819;SDS011;54618;52.018;5.576;2022-10-22T15:14:05;7.30;;;1.77;;
67819;SDS011;54618;52.018;5.576;2022-10-22T15:16:30;6.25;;;1.52;;
67819;SDS011;54618;52.018;5.576;2022-10-22T15:18:56;7.90;;;1.98;;
67819;SDS011;54618;52.018;5.576;2022-10-22T15:21:23;5.00;;;1.60;;
67819;SDS011;54618;52.018;5.576;2022-10-22T15:23:49;7.18;;;1.65;;
67819;SDS011;54618;52.018;5.576;2022-10-22T15:26:15;5.13;;;1.40;;
67819;SDS011;54618;52.018;5.576;2022-10-22T15:28:41;7.65;;;1.52;;
67819;SDS011;54618;52.018;5.576;2022-10-22T15:31:07;4.45;;;1.50;;
67819;SDS011;54618;52.018;5.576;2022-10-22T15:33:34;6.68;;;1.58;;
67819;SDS011;54618;52.018;5.576;2022-10-22T15:36:08;6.47;;;2.15;;
67819;SDS011;54618;52.018;5.576;2022-10-22T15:38:38;4.43;;;1.25;;
67819;SDS011;54618;52.018;5.576;2022-10-22T15:41:04;5.25;;;1.50;;
67819;SDS011;54618;52.018;5.576;2022-10-22T15:43:32;6.65;;;1.50;;
67819;SDS011;54618;52.018;5.576;2022-10-22T15:46:07;5.50;;;1.73;;
67819;SDS011;54618;52.018;5.576;2022-10-22T15:48:37;7.22;;;1.40;;
67819;SDS011;54618;52.018;5.576;2022-10-22T15:51:07;6.05;;;1.67;;
67819;SDS011;54618;52.018;5.576;2022-10-22T15:53:38;4.55;;;1.52;;
67819;SDS011;54618;52.018;5.576;2022-10-22T15:56:04;5.45;;;1.45;;
67819;SDS011;54618;52.018;5.576;2022-10-22T15:58:29;6.75;;;1.63;;
67819;SDS011;54618;52.018;5.576;2022-10-22T16:01:02;6.18;;;1.55;;
67819;SDS011;54618;52.018;5.576;2022-10-22T16:03:32;5.13;;;1.50;;
67819;SDS011;54618;52.018;5.576;2022-10-22T16:05:58;7.43;;;1.45;;
67819;SDS011;54618;52.018;5.576;2022-10-22T16:08:23;7.18;;;1.85;;
67819;SDS011;54618;52.018;5.576;2022-10-22T16:10:49;5.38;;;1.75;;
67819;SDS011;54618;52.018;5.576;2022-10-22T16:13:15;5.97;;;1.70;;
67819;SDS011;54618;52.018;5.576;2022-10-22T16:15:40;3.08;;;1.20;;
67819;SDS011;54618;52.018;5.576;2022-10-22T16:18:06;6.05;;;1.75;;
67819;SDS011;54618;52.018;5.576;2022-10-22T16:20:32;6.28;;;1.48;;
67819;SDS011;54618;52.018;5.576;2022-10-22T16:23:02;6.23;;;1.60;;
67819;SDS011;54618;52.018;5.576;2022-10-22T16:25:27;5.03;;;1.20;;
67819;SDS011;54618;52.018;5.576;2022-10-22T16:27:52;4.60;;;1.30;;
67819;SDS011;54618;52.018;5.576;2022-10-22T16:30:18;6.43;;;1.65;;
67819;SDS011;54618;52.018;5.576;2022-10-22T16:32:44;5.35;;;1.42;;
67819;SDS011;54618;52.018;5.576;2022-10-22T16:35:09;4.35;;;1.30;;
67819;SDS011;54618;52.018;5.576;2022-10-22T16:37:35;4.28;;;1.30;;
67819;SDS011;54618;52.018;5.576;2022-10-22T16:40:00;4.15;;;1.45;;
67819;SDS011;54618;52.018;5.576;2022-10-22T16:42:26;5.78;;;1.30;;
67819;SDS011;54618;52.018;5.576;2022-10-22T16:44:51;5.90;;;1.38;;